Time;durP1;ratioP1;P1;durP2;ratioP2;P2;SDS_P1;SDS_P2;PMS_P1;PMS_P2;Temp;Humidity;BMP_temperature;BMP_pressure;BME280_temperature;BME280_humidity;BME280_pressure;Samples;Min_cycle;Max_cycle;Signal;HPM_P1;HPM_P2
2022/09/14 00:01:22;;;;;;;0.00;0.00;;;22.50;66.50;;;;;;4180517;28;20059;-64
2022/09/14 00:04:09;;;;;;;0.00;0.00;;;22.50;66.60;;;;;;4179762;28;20051;-63
2022/09/14 00:06:52;;;;;;;0.00;0.00;;;22.50;66.70;;;;;;4189964;28;20550;-64
2022/09/14 00:09:34;;;;;;;0.00;0.00;;;22.60;66.80;;;;;;4185052;28;20118;-64
2022/09/14 00:12:15;;;;;;;0.00;0.00;;;22.50;67.60;;;;;;4173887;28;20066;-64
2022/09/14 00:14:55;;;;;;;0.00;0.00;;;22.60;66.80;;;;;;4187289;28;20090;-64
2022/09/14 00:17:38;;;;;;;0.00;0.00;;;22.50;66.70;;;;;;4191070;28;20055;-64
2022/09/14 00:20:19;;;;;;;0.00;0.00;;;22.50;66.80;;;;;;4189892;28;20057;-64
2022/09/14 00:23:00;;;;;;;0.00;0.00;;;22.50;67.80;;;;;;4190911;28;20052;-64
2022/09/14 00:25:41;;;;;;;0.00;0.00;;;22.50;66.90;;;;;;4186683;28;20403;-65
2022/09/14 00:28:22;;;;;;;0.00;0.00;;;22.50;67.00;;;;;;4190966;28;20047;-64
2022/09/14 00:31:03;;;;;;;0.00;0.00;;;22.50;67.10;;;;;;4190988;28;20502;-63
2022/09/14 00:33:47;;;;;;;0.00;0.00;;;22.50;67.00;;;;;;4178143;28;20060;-64
2022/09/14 00:36:30;;;;;;;0.00;0.00;;;22.40;67.00;;;;;;4176820;28;20155;-64
2022/09/14 00:39:12;;;;;;;0.00;0.00;;;22.50;67.00;;;;;;4177380;28;20060;-59
2022/09/14 00:41:53;;;;;;;0.00;0.00;;;22.40;67.10;;;;;;4176896;28;20052;-59
2022/09/14 00:45:07;;;;;;;0.00;0.00;;;22.50;67.20;;;;;;4178082;28;20185;-59
2022/09/14 00:47:52;;;;;;;0.00;0.00;;;22.40;67.20;;;;;;4125840;28;20056;-59
2022/09/14 00:50:34;;;;;;;0.00;0.00;;;22.40;67.20;;;;;;4172519;28;20126;-58
2022/09/14 00:53:15;;;;;;;0.00;0.00;;;22.50;67.30;;;;;;4180568;28;20113;-58
2022/09/14 00:55:56;;;;;;;0.00;0.00;;;22.40;67.30;;;;;;4194408;28;20040;-58
2022/09/14 00:58:37;;;;;;;0.00;0.00;;;22.40;67.30;;;;;;4180819;28;20060;-59
2022/09/14 01:01:18;;;;;;;0.00;0.00;;;22.40;67.40;;;;;;4177668;28;20056;-59
2022/09/14 01:03:59;;;;;;;0.00;0.00;;;22.40;67.40;;;;;;4160989;28;20052;-60
2022/09/14 01:06:47;;;;;;;0.00;0.00;;;22.40;67.40;;;;;;4160829;28;20066;-58
2022/09/14 01:09:37;;;;;;;0.05;0.05;;;22.40;67.40;;;;;;4156274;28;20067;-58
2022/09/14 01:12:29;;;;;;;0.00;0.00;;;22.40;67.50;;;;;;4177283;28;20407;-58
2022/09/14 01:15:17;;;;;;;0.10;0.10;;;22.40;67.50;;;;;;4160255;28;20057;-64
2022/09/14 01:18:07;;;;;;;0.00;0.00;;;22.40;67.50;;;;;;4179633;28;20530;-64
2022/09/14 01:20:54;;;;;;;0.00;0.00;;;22.40;67.50;;;;;;4192521;28;20056;-66
2022/09/14 01:23:43;;;;;;;0.00;0.00;;;22.40;67.60;;;;;;4185882;28;20134;-64
2022/09/14 01:27:06;;;;;;;0.00;0.00;;;22.40;67.70;;;;;;4177092;28;20499;-64
2022/09/14 01:29:55;;;;;;;0.00;0.00;;;22.30;67.60;;;;;;4160356;28;20387;-64
2022/09/14 01:32:44;;;;;;;0.00;0.00;;;22.30;67.70;;;;;;4160463;28;20056;-64
2022/09/14 01:35:29;;;;;;;0.00;0.00;;;22.30;67.70;;;;;;4160709;28;20502;-64
2022/09/14 01:38:15;;;;;;;0.10;0.10;;;22.30;67.70;;;;;;4186587;28;20059;-64
2022/09/14 01:40:59;;;;;;;0.00;0.00;;;22.30;67.80;;;;;;4180336;28;20492;-64
2022/09/14 01:43:43;;;;;;;0.00;0.00;;;22.30;67.80;;;;;;4159685;28;20056;-64
2022/09/14 01:46:31;;;;;;;0.00;0.00;;;22.30;67.80;;;;;;4160383;28;20048;-64
2022/09/14 01:49:18;;;;;;;0.00;0.00;;;22.30;68.80;;;;;;4160420;28;20207;-63
2022/09/14 01:52:04;;;;;;;0.00;0.00;;;22.30;67.90;;;;;;4170178;28;20047;-65
2022/09/14 01:54:49;;;;;;;0.00;0.00;;;22.30;67.90;;;;;;4192412;28;20056;-64
2022/09/14 01:57:36;;;;;;;0.00;0.00;;;22.30;68.00;;;;;;4165975;28;20204;-64
2022/09/14 02:00:18;;;;;;;0.00;0.00;;;22.30;68.00;;;;;;4192151;28;20051;-64
2022/09/14 02:03:06;;;;;;;0.00;0.00;;;22.30;68.10;;;;;;4178928;28;20071;-64
2022/09/14 02:05:52;;;;;;;0.00;0.00;;;22.30;68.10;;;;;;4183130;28;20114;-64
2022/09/14 02:08:34;;;;;;;0.00;0.00;;;22.30;68.10;;;;;;4193101;28;20158;-64
2022/09/14 02:11:15;;;;;;;0.00;0.00;;;22.30;68.10;;;;;;4176534;28;20503;-64
2022/09/14 02:13:56;;;;;;;0.00;0.00;;;22.20;68.10;;;;;;4158688;28;20047;-65
2022/09/14 02:16:38;;;;;;;0.00;0.00;;;22.20;68.20;;;;;;4189586;28;20059;-64
2022/09/14 02:19:21;;;;;;;0.00;0.00;;;22.30;68.20;;;;;;4183296;28;20051;-64
2022/09/14 02:22:03;;;;;;;0.00;0.00;;;22.30;68.30;;;;;;4184260;28;20499;-58
2022/09/14 02:24:45;;;;;;;0.00;0.00;;;22.30;68.40;;;;;;4175770;28;20079;-59
2022/09/14 02:27:26;;;;;;;0.00;0.00;;;22.30;68.30;;;;;;4159351;28;20419;-59
2022/09/14 02:30:08;;;;;;;0.10;0.10;;;22.20;68.20;;;;;;4158356;28;20063;-58
2022/09/14 02:33:02;;;;;;;0.00;0.00;;;22.20;68.30;;;;;;4186002;28;20052;-59
2022/09/14 02:35:49;;;;;;;0.00;0.00;;;22.20;68.30;;;;;;4182650;28;20052;-59
2022/09/14 02:38:37;;;;;;;0.00;0.00;;;22.20;68.40;;;;;;4174641;28;20063;-58
2022/09/14 02:41:25;;;;;;;0.00;0.00;;;22.20;68.40;;;;;;4177273;28;20055;-58
2022/09/14 02:44:15;;;;;;;1.42;0.57;;;22.20;68.40;;;;;;4192460;28;20079;-58
2022/09/14 02:47:03;;;;;;;0.10;0.10;;;22.20;68.50;;;;;;4161048;28;20511;-58
2022/09/14 02:49:50;;;;;;;0.20;0.20;;;22.20;68.50;;;;;;4175926;28;20514;-59
2022/09/14 02:52:39;;;;;;;0.03;0.03;;;22.20;68.50;;;;;;4187266;28;20107;-58
2022/09/14 02:55:23;;;;;;;0.00;0.00;;;22.20;68.50;;;;;;4187239;28;20052;-58
2022/09/14 02:58:06;;;;;;;0.00;0.00;;;22.20;68.60;;;;;;4175309;28;20052;-64
2022/09/14 03:00:48;;;;;;;0.00;0.00;;;22.10;68.50;;;;;;4175937;28;20051;-64
2022/09/14 03:03:29;;;;;;;0.00;0.00;;;22.10;68.60;;;;;;4159388;28;20511;-63
2022/09/14 03:06:15;;;;;;;0.00;0.00;;;22.10;68.60;;;;;;4182292;28;20079;-63
2022/09/14 03:08:57;;;;;;;0.00;0.00;;;22.10;68.60;;;;;;4192166;28;20137;-65
2022/09/14 03:11:38;;;;;;;0.00;0.00;;;22.10;68.70;;;;;;4175670;28;20060;-64
2022/09/14 03:14:19;;;;;;;0.00;0.00;;;22.10;68.70;;;;;;4175665;28;20140;-64
2022/09/14 03:17:00;;;;;;;0.28;0.28;;;22.10;68.80;;;;;;4174548;28;20182;-64
2022/09/14 03:19:41;;;;;;;0.00;0.00;;;22.10;68.80;;;;;;4174952;28;20136;-64
2022/09/14 03:22:22;;;;;;;0.00;0.00;;;22.10;68.80;;;;;;4184867;28;20051;-64
2022/09/14 03:25:05;;;;;;;0.00;0.00;;;22.10;68.90;;;;;;4191299;28;20510;-64
2022/09/14 03:27:50;;;;;;;0.00;0.00;;;22.10;68.90;;;;;;4175283;28;20059;-64
2022/09/14 03:30:31;;;;;;;0.00;0.00;;;22.10;69.00;;;;;;4175494;28;20067;-64
2022/09/14 03:33:14;;;;;;;0.00;0.00;;;22.10;69.00;;;;;;4158958;28;20056;-64
2022/09/14 03:35:55;;;;;;;0.00;0.00;;;22.10;69.00;;;;;;4172402;28;20047;-64
2022/09/14 03:38:36;;;;;;;0.05;0.05;;;22.10;69.00;;;;;;4191743;28;20135;-64
2022/09/14 03:41:19;;;;;;;0.00;0.00;;;22.10;70.00;;;;;;4176555;28;20067;-65
2022/09/14 03:44:00;;;;;;;0.30;0.30;;;22.10;69.20;;;;;;4175288;28;20051;-65
2022/09/14 03:46:41;;;;;;;0.00;0.00;;;22.10;69.20;;;;;;4188553;28;20514;-66
2022/09/14 03:49:22;;;;;;;0.03;0.03;;;22.10;69.20;;;;;;4191792;28;20052;-65
2022/09/14 03:52:03;;;;;;;0.00;0.00;;;22.10;69.20;;;;;;4182519;28;20056;-67
2022/09/14 03:54:44;;;;;;;0.00;0.00;;;22.00;69.30;;;;;;4175487;28;20507;-66
2022/09/14 03:57:26;;;;;;;0.00;0.00;;;22.00;69.30;;;;;;4158735;28;20380;-65
2022/09/14 04:00:09;;;;;;;0.00;0.00;;;22.00;69.30;;;;;;4157957;28;20052;-65
2022/09/14 04:02:53;;;;;;;0.00;0.00;;;22.00;69.40;;;;;;4158160;28;20052;-66
2022/09/14 04:05:34;;;;;;;0.10;0.10;;;22.00;69.40;;;;;;4158921;28;20052;-66
2022/09/14 04:08:15;;;;;;;0.00;0.00;;;22.00;69.40;;;;;;4170345;28;20056;-66
2022/09/14 04:10:55;;;;;;;0.00;0.00;;;22.00;69.40;;;;;;4175564;28;20055;-66
2022/09/14 04:13:38;;;;;;;0.00;0.00;;;22.00;69.50;;;;;;4193508;28;20047;-65
2022/09/14 04:16:20;;;;;;;0.00;0.00;;;22.00;69.50;;;;;;4194676;28;20102;-66
2022/09/14 04:19:02;;;;;;;10.75;1.55;;;22.00;69.50;;;;;;4194475;28;20410;-66
2022/09/14 04:21:42;;;;;;;0.00;0.00;;;22.00;69.60;;;;;;4187012;28;20411;-66
2022/09/14 04:24:23;;;;;;;0.00;0.00;;;22.00;69.60;;;;;;4185173;28;20071;-65
2022/09/14 04:27:09;;;;;;;0.03;0.03;;;22.00;69.60;;;;;;4194169;28;20063;-67
2022/09/14 04:29:51;;;;;;;0.00;0.00;;;22.00;69.60;;;;;;4194325;28;20055;-64
2022/09/14 04:32:32;;;;;;;0.20;0.20;;;22.00;69.70;;;;;;4179598;28;20056;-63
2022/09/14 04:35:14;;;;;;;0.00;0.00;;;22.00;69.80;;;;;;4192976;28;20047;-64
2022/09/14 04:37:55;;;;;;;0.00;0.00;;;22.00;69.80;;;;;;4161349;28;20420;-64
2022/09/14 04:40:40;;;;;;;0.00;0.00;;;22.00;69.70;;;;;;4174230;28;20166;-58
2022/09/14 04:43:21;;;;;;;0.00;0.00;;;22.00;69.70;;;;;;4177970;28;20499;-58
2022/09/14 04:46:05;;;;;;;0.00;0.00;;;22.00;69.70;;;;;;4178032;28;20122;-59
2022/09/14 04:48:45;;;;;;;0.00;0.00;;;21.90;69.70;;;;;;4177991;28;20122;-59
2022/09/14 04:51:28;;;;;;;0.00;0.00;;;21.90;69.70;;;;;;4181848;28;20056;-59
2022/09/14 04:54:13;;;;;;;0.00;0.00;;;22.00;69.80;;;;;;4177720;28;20183;-58
2022/09/14 04:56:54;;;;;;;0.00;0.00;;;21.90;69.70;;;;;;4165044;28;20044;-59
2022/09/14 04:59:35;;;;;;;0.00;0.00;;;22.00;69.80;;;;;;4187193;28;20165;-60
2022/09/14 05:02:17;;;;;;;0.00;0.00;;;21.90;70.00;;;;;;4177944;28;20107;-60
2022/09/14 05:04:58;;;;;;;0.00;0.00;;;21.90;69.80;;;;;;4177431;28;20138;-59
2022/09/14 05:07:38;;;;;;;0.00;0.00;;;21.90;69.80;;;;;;4184358;28;20105;-59
2022/09/14 05:10:19;;;;;;;0.00;0.00;;;21.90;70.10;;;;;;4185247;28;20122;-60
2022/09/14 05:13:00;;;;;;;0.00;0.00;;;22.00;70.20;;;;;;4192308;28;20399;-59
2022/09/14 05:15:41;;;;;;;0.00;0.00;;;22.00;70.10;;;;;;4184521;28;20062;-66
2022/09/14 05:18:24;;;;;;;0.00;0.00;;;21.90;69.90;;;;;;4176583;28;20126;-67
2022/09/14 05:21:06;;;;;;;0.00;0.00;;;21.90;69.90;;;;;;4177263;28;20056;-67
2022/09/14 05:23:52;;;;;;;0.05;0.05;;;21.90;69.90;;;;;;4175978;28;20179;-59
2022/09/14 05:26:33;;;;;;;0.08;0.08;;;21.90;69.70;;;;;;4177035;28;20057;-59
2022/09/14 05:29:17;;;;;;;0.00;0.00;;;21.90;69.60;;;;;;4181677;28;20051;-66
2022/09/14 05:31:58;;;;;;;0.00;0.00;;;21.90;69.70;;;;;;4193417;28;20055;-66
2022/09/14 05:34:40;;;;;;;0.00;0.00;;;21.90;69.50;;;;;;4171212;28;20187;-65
2022/09/14 05:37:21;;;;;;;0.00;0.00;;;21.90;69.70;;;;;;4164147;28;20622;-65
2022/09/14 05:40:04;;;;;;;0.00;0.00;;;21.90;69.90;;;;;;4176385;28;20052;-60
2022/09/14 05:42:44;;;;;;;0.00;0.00;;;21.90;69.90;;;;;;4186901;28;20067;-59
2022/09/14 05:45:26;;;;;;;0.00;0.00;;;21.90;69.90;;;;;;4176753;28;20081;-65
2022/09/14 05:48:07;;;;;;;0.00;0.00;;;21.90;69.80;;;;;;4176487;28;20457;-60
2022/09/14 05:50:49;;;;;;;0.00;0.00;;;21.90;69.80;;;;;;4159945;28;20083;-59
2022/09/14 05:53:30;;;;;;;0.00;0.00;;;21.90;69.90;;;;;;4180331;28;20095;-60
2022/09/14 05:56:12;;;;;;;;;;;21.90;70.00;;;;;;4193221;28;20118;-60
2022/09/14 05:58:54;;;;;;;0.00;0.00;;;21.90;69.90;;;;;;4186094;28;19928;-60
2022/09/14 06:01:35;;;;;;;0.00;0.00;;;21.90;69.90;;;;;;4167728;28;20064;-59
2022/09/14 06:04:16;;;;;;;0.00;0.00;;;21.90;70.00;;;;;;4176306;28;20052;-67
2022/09/14 06:06:58;;;;;;;0.00;0.00;;;21.80;70.10;;;;;;4176230;28;20048;-67
2022/09/14 06:09:57;;;;;;;0.00;0.00;;;21.90;70.10;;;;;;4181704;28;20052;-66
2022/09/14 06:12:38;;;;;;;0.00;0.00;;;21.90;70.60;;;;;;4176208;28;20059;-67
2022/09/14 06:15:20;;;;;;;0.00;0.00;;;21.80;70.30;;;;;;4175723;28;20184;-67
2022/09/14 06:18:01;;;;;;;0.00;0.00;;;21.90;70.30;;;;;;4176220;28;20056;-67
2022/09/14 06:20:50;;;;;;;0.20;0.20;;;21.80;70.50;;;;;;4159587;28;20064;-66
2022/09/14 06:23:33;;;;;;;0.00;0.00;;;21.80;70.60;;;;;;4159477;28;20060;-66
2022/09/14 06:26:13;;;;;;;0.28;0.28;;;21.80;70.40;;;;;;4158065;28;20049;-68
2022/09/14 06:28:55;;;;;;;0.00;0.00;;;21.80;70.40;;;;;;4177513;28;20080;-66
2022/09/14 06:31:36;;;;;;;0.00;0.00;;;21.80;70.40;;;;;;4181331;28;20126;-66
2022/09/14 06:34:17;;;;;;;0.00;0.00;;;21.80;70.40;;;;;;4175367;28;20056;-66
2022/09/14 06:36:57;;;;;;;0.00;0.00;;;21.80;70.40;;;;;;4170155;28;20072;-66
2022/09/14 06:39:40;;;;;;;0.28;0.28;;;21.80;70.40;;;;;;4160494;28;20139;-66
2022/09/14 06:42:20;;;;;;;0.00;0.00;;;21.80;71.30;;;;;;4159199;28;20056;-67
2022/09/14 06:45:06;;;;;;;0.00;0.00;;;21.80;70.40;;;;;;4172783;28;20047;-66
2022/09/14 06:47:47;;;;;;;0.00;0.00;;;21.80;70.50;;;;;;4175722;28;20056;-66
2022/09/14 06:50:27;;;;;;;0.00;0.00;;;21.80;70.40;;;;;;4177786;28;20427;-68
2022/09/14 06:53:09;;;;;;;0.00;0.00;;;21.80;70.30;;;;;;4178924;28;20060;-66
2022/09/14 06:55:51;;;;;;;0.00;0.00;;;21.80;70.30;;;;;;4174661;28;20055;-68
2022/09/14 06:58:32;;;;;;;0.00;0.00;;;21.80;70.30;;;;;;4159231;28;20056;-67
2022/09/14 07:01:15;;;;;;;0.00;0.00;;;21.80;70.30;;;;;;4177835;28;20074;-69
2022/09/14 07:03:57;;;;;;;0.00;0.00;;;21.80;70.30;;;;;;4170138;28;20052;-67
2022/09/14 07:06:43;;;;;;;0.00;0.00;;;21.80;70.30;;;;;;4158894;28;20052;-66
2022/09/14 07:09:24;;;;;;;14.90;1.40;;;21.80;70.30;;;;;;4193323;28;20052;-67
2022/09/14 07:12:08;;;;;;;0.00;0.00;;;21.80;70.30;;;;;;4175585;28;20103;-67
2022/09/14 07:14:49;;;;;;;0.00;0.00;;;21.80;70.20;;;;;;4179880;28;20056;-67
2022/09/14 07:17:30;;;;;;;0.08;0.08;;;21.80;70.20;;;;;;4173599;28;20399;-64
2022/09/14 07:20:12;;;;;;;0.00;0.00;;;21.80;70.60;;;;;;4174893;28;20060;-71
2022/09/14 07:22:53;;;;;;;0.00;0.00;;;21.80;71.00;;;;;;4172835;28;20527;-69
2022/09/14 07:25:34;;;;;;;0.20;0.20;;;21.80;70.90;;;;;;4175364;28;20051;-71
2022/09/14 07:28:16;;;;;;;0.00;0.00;;;21.80;70.60;;;;;;4175753;28;20048;-71
2022/09/14 07:30:57;;;;;;;0.00;0.00;;;21.80;70.60;;;;;;4180522;28;20051;-60
2022/09/14 07:33:38;;;;;;;;;;;21.80;70.70;;;;;;4192662;28;20059;-59
2022/09/14 07:36:19;;;;;;;0.00;0.00;;;21.80;70.80;;;;;;4177313;28;19966;-57
2022/09/14 07:39:00;;;;;;;0.10;0.10;;;21.80;71.20;;;;;;4175442;28;20083;-58
2022/09/14 07:41:42;;;;;;;0.17;0.17;;;21.80;71.40;;;;;;4176092;28;20110;-63
2022/09/14 07:44:24;;;;;;;0.00;0.00;;;21.80;71.60;;;;;;4193232;28;20062;-63
2022/09/14 07:47:06;;;;;;;0.00;0.00;;;21.80;72.30;;;;;;4177187;28;20043;-63
2022/09/14 07:49:48;;;;;;;0.00;0.00;;;21.80;72.30;;;;;;4159464;28;20047;-63
2022/09/14 07:52:29;;;;;;;0.00;0.00;;;21.80;72.10;;;;;;4160680;28;20048;-64
2022/09/14 07:55:13;;;;;;;2.28;2.08;;;21.80;72.00;;;;;;4175887;28;20059;-64
2022/09/14 07:57:55;;;;;;;0.00;0.00;;;21.80;72.00;;;;;;4194964;28;20043;-63
2022/09/14 08:00:37;;;;;;;0.08;0.08;;;21.80;71.90;;;;;;4194969;28;20079;-63
2022/09/14 08:03:18;;;;;;;0.00;0.00;;;21.80;71.80;;;;;;4174737;28;20138;-63
2022/09/14 08:06:01;;;;;;;0.08;0.08;;;21.80;71.80;;;;;;4175316;28;20130;-64
2022/09/14 08:08:44;;;;;;;0.00;0.00;;;21.80;71.80;;;;;;4159976;28;20064;-61
2022/09/14 08:11:26;;;;;;;0.00;0.00;;;21.80;71.80;;;;;;4160004;28;20065;-61
2022/09/14 08:14:10;;;;;;;0.00;0.00;;;21.80;72.00;;;;;;4159933;28;20060;-61
2022/09/14 08:16:52;;;;;;;0.10;0.10;;;21.80;72.20;;;;;;4161238;28;20051;-60
2022/09/14 08:19:32;;;;;;;0.00;0.00;;;21.80;72.20;;;;;;4161914;28;20079;-60
2022/09/14 08:22:13;;;;;;;0.00;0.00;;;21.80;72.20;;;;;;4159577;28;20255;-60
2022/09/14 08:24:54;;;;;;;0.00;0.00;;;21.90;72.30;;;;;;4161315;28;20115;-60
2022/09/14 08:27:35;;;;;;;0.00;0.00;;;21.90;72.30;;;;;;4159864;28;20057;-60
2022/09/14 08:30:16;;;;;;;0.05;0.05;;;21.90;72.30;;;;;;4159232;28;21154;-60
2022/09/14 08:32:59;;;;;;;0.10;0.10;;;21.90;72.80;;;;;;4159376;28;20060;-60
2022/09/14 08:35:45;;;;;;;0.52;0.52;;;21.90;72.90;;;;;;4167470;28;20053;-60
2022/09/14 08:38:41;;;;;;;0.73;0.73;;;22.00;72.50;;;;;;4164594;28;20064;-60
2022/09/14 08:41:28;;;;;;;1.92;1.77;;;22.00;72.90;;;;;;4159004;28;20072;-61
2022/09/14 08:44:16;;;;;;;2.92;1.45;;;21.90;72.70;;;;;;4174965;28;20055;-61
2022/09/14 08:47:02;;;;;;;0.25;0.25;;;22.00;72.50;;;;;;4167313;28;20092;-62
2022/09/14 08:49:47;;;;;;;0.57;0.57;;;22.00;72.00;;;;;;4160427;28;20060;-61
2022/09/14 08:52:31;;;;;;;1.40;1.40;;;22.00;71.70;;;;;;4174169;28;20060;-62
2022/09/14 08:55:20;;;;;;;0.05;0.05;;;22.00;71.50;;;;;;4159086;28;20495;-62
2022/09/14 08:58:06;;;;;;;0.03;0.03;;;22.10;71.40;;;;;;4160170;28;20056;-61
2022/09/14 09:00:54;;;;;;;0.00;0.00;;;22.10;72.40;;;;;;4164552;28;20274;-62
2022/09/14 09:04:02;;;;;;;0.28;0.28;;;22.10;71.10;;;;;;4159197;28;20131;-62
2022/09/14 09:06:53;;;;;;;0.57;0.57;;;22.10;70.90;;;;;;4160278;28;20496;-64
2022/09/14 09:09:41;;;;;;;0.85;0.85;;;22.10;70.50;;;;;;4157424;28;20064;-63
2022/09/14 09:12:28;;;;;;;0.10;0.10;;;22.10;70.60;;;;;;4159185;28;20470;-63
2022/09/14 09:15:19;;;;;;;0.43;0.43;;;22.10;70.50;;;;;;4158875;28;20244;-62
2022/09/14 09:18:06;;;;;;;0.00;0.00;;;22.10;70.30;;;;;;4156335;28;20072;-64
2022/09/14 09:20:51;;;;;;;0.00;0.00;;;22.20;70.00;;;;;;4158919;28;20176;-63
2022/09/14 09:23:34;;;;;;;0.17;0.17;;;22.20;69.30;;;;;;4158522;28;20056;-63
2022/09/14 09:26:21;;;;;;;2.47;2.28;;;22.20;68.40;;;;;;4174124;28;20051;-63
2022/09/14 09:29:04;;;;;;;0.00;0.00;;;22.20;67.60;;;;;;4159140;28;20123;-63
2022/09/14 09:32:07;;;;;;;0.10;0.10;;;22.20;67.60;;;;;;4173368;28;20140;-63
2022/09/14 09:35:14;;;;;;;0.43;0.43;;;22.20;68.00;;;;;;4159494;28;20052;-63
2022/09/14 09:38:13;;;;;;;0.13;0.13;;;22.20;68.30;;;;;;4157749;28;20048;-64
2022/09/14 09:40:59;;;;;;;0.03;0.03;;;22.20;69.00;;;;;;4160913;28;20408;-63
2022/09/14 09:43:59;;;;;;;0.00;0.00;;;22.20;69.60;;;;;;4172835;28;20159;-63
2022/09/14 09:46:46;;;;;;;0.98;0.95;;;22.20;69.30;;;;;;4158293;28;20191;-63
2022/09/14 09:49:31;;;;;;;0.00;0.00;;;22.20;67.50;;;;;;4158387;28;20503;-63
2022/09/14 09:52:14;;;;;;;0.85;0.85;;;22.30;66.80;;;;;;4159389;28;20072;-63
2022/09/14 09:54:57;;;;;;;0.00;0.00;;;22.30;66.80;;;;;;4158932;28;20056;-63
2022/09/14 09:57:39;;;;;;;0.00;0.00;;;22.30;67.10;;;;;;4173693;28;20059;-63
2022/09/14 10:00:23;;;;;;;0.10;0.10;;;22.30;67.50;;;;;;4161061;28;20060;-65
2022/09/14 10:03:27;;;;;;;0.00;0.00;;;22.30;67.70;;;;;;4179539;28;20409;-63
2022/09/14 10:06:11;;;;;;;0.00;0.00;;;22.30;67.50;;;;;;4155521;28;20106;-63
2022/09/14 10:08:53;;;;;;;0.20;0.20;;;22.30;67.40;;;;;;4157836;28;20049;-63
2022/09/14 10:11:37;;;;;;;30.75;1.75;;;22.30;67.20;;;;;;4170589;28;20504;-62
2022/09/14 10:14:30;;;;;;;0.00;0.00;;;22.30;67.20;;;;;;4157641;28;20185;-63
2022/09/14 10:17:18;;;;;;;0.00;0.00;;;22.30;67.20;;;;;;4157454;28;20058;-64
2022/09/14 10:19:58;;;;;;;0.00;0.00;;;22.30;67.10;;;;;;4157747;28;20080;-63
2022/09/14 10:22:41;;;;;;;0.00;0.00;;;22.30;67.00;;;;;;4173439;28;20074;-63
2022/09/14 10:25:24;;;;;;;0.00;0.00;;;22.30;67.80;;;;;;4161796;28;20087;-63
2022/09/14 10:28:05;;;;;;;0.00;0.00;;;22.30;66.90;;;;;;4158176;28;20056;-63
2022/09/14 10:30:53;;;;;;;0.00;0.00;;;22.30;66.70;;;;;;4165887;28;20048;-63
2022/09/14 10:33:35;;;;;;;0.10;0.10;;;22.30;67.40;;;;;;4165145;28;20060;-64
2022/09/14 10:36:24;;;;;;;0.00;0.00;;;22.30;66.50;;;;;;4156052;28;20098;-63
2022/09/14 10:39:15;;;;;;;0.60;0.60;;;22.30;66.50;;;;;;4172022;28;20056;-63
2022/09/14 10:42:01;;;;;;;0.00;0.00;;;22.30;66.40;;;;;;4164096;28;20056;-63
2022/09/14 10:44:54;;;;;;;0.00;0.00;;;22.30;66.30;;;;;;4173130;28;20048;-63
2022/09/14 10:48:01;;;;;;;0.00;0.00;;;22.30;66.00;;;;;;4158021;28;20163;-64
2022/09/14 10:50:53;;;;;;;0.00;0.00;;;22.30;65.90;;;;;;4156325;28;20581;-63
2022/09/14 10:53:45;;;;;;;0.00;0.00;;;22.30;65.60;;;;;;4149663;28;20060;-67
2022/09/14 10:56:33;;;;;;;0.50;0.50;;;22.30;65.30;;;;;;4144085;28;20139;-66
2022/09/14 10:59:26;;;;;;;0.00;0.00;;;22.30;65.30;;;;;;4140510;28;20100;-66
2022/09/14 11:02:50;;;;;;;0.00;0.00;;;22.40;65.20;;;;;;4141081;28;20511;-66
2022/09/14 11:05:35;;;;;;;0.00;0.00;;;22.40;64.50;;;;;;4152251;28;20504;-66
2022/09/14 11:08:24;;;;;;;0.00;0.00;;;22.40;64.80;;;;;;4141135;28;20437;-68
2022/09/14 11:11:21;;;;;;;0.00;0.00;;;22.40;63.90;;;;;;4144951;28;20057;-69
2022/09/14 11:14:19;;;;;;;0.00;0.00;;;22.40;64.40;;;;;;4153192;28;20090;-63
2022/09/14 11:17:12;;;;;;;0.00;0.00;;;22.50;64.50;;;;;;4140265;28;20061;-63
2022/09/14 11:20:04;;;;;;;0.00;0.00;;;22.50;64.20;;;;;;4172707;28;20419;-64
2022/09/14 11:22:54;;;;;;;0.00;0.00;;;22.50;63.90;;;;;;4159298;28;20056;-63
2022/09/14 11:25:44;;;;;;;0.00;0.00;;;22.50;63.20;;;;;;4157543;28;20052;-62
2022/09/14 11:28:33;;;;;;;0.20;0.20;;;22.50;63.40;;;;;;4165217;28;20088;-62
2022/09/14 11:31:18;;;;;;;0.00;0.00;;;22.60;62.90;;;;;;4157282;28;20056;-63
2022/09/14 11:34:09;;;;;;;0.00;0.00;;;22.60;63.20;;;;;;4156858;28;20055;-63
2022/09/14 11:36:55;;;;;;;0.00;0.00;;;22.60;64.20;;;;;;4162275;28;20053;-63
2022/09/14 11:39:41;;;;;;;0.00;0.00;;;22.60;63.40;;;;;;4157008;28;20115;-63
2022/09/14 11:42:26;;;;;;;0.00;0.00;;;22.60;63.60;;;;;;4163403;28;20068;-63
2022/09/14 11:45:14;;;;;;;0.25;0.25;;;22.60;63.80;;;;;;4156786;28;20064;-68
2022/09/14 11:48:06;;;;;;;0.10;0.10;;;22.60;63.90;;;;;;4157401;28;20164;-68
2022/09/14 11:51:12;;;;;;;0.00;0.00;;;22.60;63.80;;;;;;4159739;28;20051;-68
2022/09/14 11:53:54;;;;;;;0.00;0.00;;;22.60;63.90;;;;;;4172862;28;20055;-68
2022/09/14 11:56:35;;;;;;;0.00;0.00;;;22.70;63.70;;;;;;4171138;28;20056;-68
2022/09/14 11:59:49;;;;;;;0.00;0.00;;;22.70;63.60;;;;;;4165953;28;20060;-67
2022/09/14 12:03:14;;;;;;;0.00;0.00;;;22.70;63.20;;;;;;4165737;28;20127;-66
2022/09/14 12:05:55;;;;;;;0.00;0.00;;;22.70;63.10;;;;;;4155557;28;20168;-66
2022/09/14 12:08:40;;;;;;;0.25;0.25;;;22.70;63.40;;;;;;4156828;28;20052;-64
2022/09/14 12:11:33;;;;;;;0.00;0.00;;;22.80;63.50;;;;;;4158919;28;20064;-63
2022/09/14 12:14:26;;;;;;;0.20;0.20;;;22.80;63.20;;;;;;4172106;28;20385;-64
2022/09/14 12:17:17;;;;;;;0.10;0.10;;;22.80;62.20;;;;;;4157686;28;20057;-64
2022/09/14 12:20:39;;;;;;;0.00;0.00;;;22.80;62.30;;;;;;4171644;28;20060;-63
2022/09/14 12:23:24;;;;;;;0.00;0.00;;;22.90;62.50;;;;;;4154579;28;20150;-63
2022/09/14 12:26:25;;;;;;;0.00;0.00;;;22.80;62.00;;;;;;4140177;28;20079;-64
2022/09/14 12:29:26;;;;;;;0.00;0.00;;;22.90;61.60;;;;;;4151916;28;20111;-63
2022/09/14 12:32:27;;;;;;;;;;;22.90;60.00;;;;;;4157735;28;20055;-64
2022/09/14 12:35:42;;;;;;;0.00;0.00;;;22.90;60.00;;;;;;4160958;28;20067;-63
2022/09/14 12:38:42;;;;;;;0.00;0.00;;;23.00;60.00;;;;;;4161523;28;20052;-64
2022/09/14 12:41:58;;;;;;;0.00;0.00;;;22.90;60.70;;;;;;4175806;28;20083;-63
2022/09/14 12:44:42;;;;;;;0.00;0.00;;;23.00;60.30;;;;;;4177768;28;20187;-62
2022/09/14 12:47:56;;;;;;;0.00;0.00;;;22.90;60.60;;;;;;4177794;28;20172;-62
2022/09/14 12:50:39;;;;;;;0.00;0.00;;;22.90;61.30;;;;;;4177509;28;20111;-63
2022/09/14 12:53:29;;;;;;;0.00;0.00;;;23.00;61.00;;;;;;4177914;28;20056;-63
2022/09/14 12:56:20;;;;;;;0.00;0.00;;;23.00;61.20;;;;;;4177856;28;20067;-62
2022/09/14 12:59:10;;;;;;;0.00;0.00;;;22.90;61.30;;;;;;4177751;28;20106;-63
2022/09/14 13:01:59;;;;;;;0.00;0.00;;;23.00;61.60;;;;;;4177986;28;20530;-63
2022/09/14 13:04:41;;;;;;;0.00;0.00;;;23.00;61.10;;;;;;4177537;28;20056;-62
2022/09/14 13:07:22;;;;;;;;;;;23.00;60.50;;;;;;4178312;28;20072;-62
2022/09/14 13:10:06;;;;;;;0.10;0.10;;;23.00;60.50;;;;;;4177793;28;20051;-63
2022/09/14 13:12:48;;;;;;;0.00;0.00;;;23.00;59.70;;;;;;4177395;28;20126;-63
2022/09/14 13:15:32;;;;;;;0.00;0.00;;;23.00;59.60;;;;;;4177436;28;20060;-62
2022/09/14 13:18:29;;;;;;;0.38;0.38;;;23.00;59.80;;;;;;4161911;28;20439;-63
2022/09/14 13:21:18;;;;;;;0.00;0.00;;;22.90;60.30;;;;;;4144466;28;20052;-63
2022/09/14 13:23:59;;;;;;;0.00;0.00;;;23.00;60.30;;;;;;4176228;28;20063;-63
2022/09/14 13:26:40;;;;;;;0.00;0.00;;;23.00;59.80;;;;;;4144770;28;20077;-63
2022/09/14 13:29:23;;;;;;;0.47;0.43;;;22.90;59.60;;;;;;4144800;28;20401;-62
2022/09/14 13:32:04;;;;;;;0.00;0.00;;;22.90;59.80;;;;;;4159638;28;20492;-62
2022/09/14 13:34:47;;;;;;;0.00;0.00;;;22.90;59.80;;;;;;4160631;28;20067;-62
2022/09/14 13:37:28;;;;;;;0.00;0.00;;;22.90;59.60;;;;;;4159913;28;20052;-63
2022/09/14 13:40:09;;;;;;;;;;;22.90;59.80;;;;;;4161500;28;20074;-65
2022/09/14 13:42:53;;;;;;;0.00;0.00;;;22.90;59.80;;;;;;4175557;28;19932;-66
2022/09/14 13:45:35;;;;;;;0.00;0.00;;;22.90;60.20;;;;;;4175748;28;20164;-64
2022/09/14 13:48:18;;;;;;;0.00;0.00;;;22.90;59.70;;;;;;4177228;28;20052;-64
2022/09/14 13:51:00;;;;;;;0.00;0.00;;;22.90;60.10;;;;;;4177082;28;20400;-65
2022/09/14 13:53:44;;;;;;;0.00;0.00;;;22.80;60.80;;;;;;4160143;28;20048;-65
2022/09/14 13:56:29;;;;;;;0.35;0.35;;;22.80;60.10;;;;;;4184025;28;20143;-65
2022/09/14 13:59:18;;;;;;;0.00;0.00;;;22.80;59.70;;;;;;4175468;28;20542;-64
2022/09/14 14:02:00;;;;;;;0.00;0.00;;;22.90;59.80;;;;;;4160331;28;20053;-64
2022/09/14 14:04:48;;;;;;;0.85;0.85;;;22.80;59.40;;;;;;4160058;28;20377;-65
2022/09/14 14:07:32;;;;;;;0.00;0.00;;;22.80;59.70;;;;;;4160274;28;20048;-64
2022/09/14 14:10:28;;;;;;;0.00;0.00;;;22.80;60.30;;;;;;4163999;28;20065;-64
2022/09/14 14:13:08;;;;;;;0.00;0.00;;;22.80;60.70;;;;;;4175972;28;20064;-65
2022/09/14 14:15:51;;;;;;;;;;;22.80;60.30;;;;;;4176973;28;20056;-65
2022/09/14 14:18:40;;;;;;;0.00;0.00;;;22.90;59.30;;;;;;4176599;28;19931;-65
2022/09/14 14:21:27;;;;;;;0.00;0.00;;;22.90;59.80;;;;;;4176458;28;20530;-65
2022/09/14 14:24:26;;;;;;;0.00;0.00;;;22.90;60.10;;;;;;4176495;28;20056;-64